createdAt,value
2022-10-03T00:00:21.073Z,11.90
2022-10-03T00:03:29.438Z,11.80
2022-10-03T00:06:15.421Z,11.60
2022-10-03T00:09:03.455Z,11.80
2022-10-03T00:11:58.048Z,11.90
2022-10-03T00:14:39.299Z,11.80
2022-10-03T00:17:15.744Z,11.70
2022-10-03T00:19:52.050Z,11.60
2022-10-03T00:22:37.035Z,11.60
2022-10-03T00:25:28.457Z,11.70
2022-10-03T00:28:10.775Z,11.70
2022-10-03T00:30:46.449Z,11.80
2022-10-03T00:33:23.120Z,11.90
2022-10-03T00:36:02.589Z,11.90
2022-10-03T00:38:52.456Z,11.80
2022-10-03T00:41:40.889Z,11.70
2022-10-03T00:44:43.798Z,11.70
2022-10-03T00:47:49.024Z,11.70
2022-10-03T00:50:33.723Z,11.60
2022-10-03T00:53:29.028Z,11.70
2022-10-03T00:56:10.649Z,11.70
2022-10-03T00:58:53.937Z,11.70
2022-10-03T01:01:32.163Z,11.70
2022-10-03T01:04:14.136Z,11.70
2022-10-03T01:07:06.504Z,11.80
2022-10-03T01:09:56.555Z,11.80
2022-10-03T01:12:52.456Z,11.70
2022-10-03T01:15:43.986Z,11.80
2022-10-03T01:18:22.810Z,11.70
2022-10-03T01:21:15.545Z,11.70
2022-10-03T01:24:07.274Z,11.70
2022-10-03T01:26:54.665Z,11.70
2022-10-03T01:30:11.204Z,11.60
2022-10-03T01:32:48.797Z,11.70
2022-10-03T01:35:23.162Z,11.50
2022-10-03T01:37:57.591Z,11.40
2022-10-03T01:40:47.957Z,11.20
2022-10-03T01:43:21.224Z,11.10
2022-10-03T01:46:23.232Z,11.00
2022-10-03T01:49:15.839Z,11.00
2022-10-03T01:52:24.559Z,11.00
2022-10-03T01:54:57.301Z,10.90
2022-10-03T01:57:29.687Z,11.10
2022-10-03T02:00:17.703Z,10.90
2022-10-03T02:02:50.508Z,10.90
2022-10-03T02:05:17.127Z,10.90
2022-10-03T02:08:10.098Z,10.90
2022-10-03T02:10:42.980Z,10.80
2022-10-03T02:13:31.751Z,10.80
2022-10-03T02:16:08.152Z,10.90
2022-10-03T02:19:05.985Z,10.80
2022-10-03T02:21:34.158Z,11.00
2022-10-03T02:24:16.079Z,10.90
2022-10-03T02:27:21.103Z,10.80
2022-10-03T02:29:56.931Z,10.80
2022-10-03T02:32:35.683Z,10.80
2022-10-03T02:35:39.927Z,10.70
2022-10-03T02:38:22.317Z,10.70
2022-10-03T02:41:16.695Z,10.80
2022-10-03T02:44:16.613Z,10.90
2022-10-03T02:47:31.861Z,10.90
2022-10-03T02:50:22.929Z,10.80
2022-10-03T02:53:01.192Z,10.80
2022-10-03T02:55:56.860Z,10.80
2022-10-03T02:58:52.398Z,10.60
2022-10-03T03:01:56.429Z,10.50
2022-10-03T03:04:56.763Z,10.70
2022-10-03T03:08:03.072Z,10.70
2022-10-03T03:10:44.204Z,10.60
2022-10-03T03:14:07.299Z,10.50
2022-10-03T03:16:53.120Z,10.70
2022-10-03T03:19:43.744Z,10.70
2022-10-03T03:22:36.382Z,10.70
2022-10-03T03:25:24.620Z,10.60
2022-10-03T03:28:13.549Z,10.70
2022-10-03T03:30:43.246Z,10.70
2022-10-03T03:33:25.140Z,10.60
2022-10-03T03:35:57.665Z,10.50
2022-10-03T03:39:03.229Z,10.50
2022-10-03T03:41:50.441Z,10.60
2022-10-03T03:44:44.278Z,10.40
2022-10-03T03:47:48.435Z,10.40
2022-10-03T03:50:33.997Z,10.40
2022-10-03T03:53:09.527Z,10.40
2022-10-03T03:56:05.076Z,10.40
2022-10-03T03:59:07.308Z,10.30
2022-10-03T04:02:15.366Z,10.20
2022-10-03T04:04:54.394Z,10.10
2022-10-03T04:07:24.165Z,10.00
2022-10-03T04:10:09.253Z,10.10
2022-10-03T04:13:07.699Z,10.00
2022-10-03T04:15:46.451Z,9.90
2022-10-03T04:18:54.747Z,9.80
2022-10-03T04:21:45.634Z,9.90
2022-10-03T04:24:27.657Z,9.80
2022-10-03T04:27:15.897Z,9.70
2022-10-03T04:30:01.108Z,9.70
2022-10-03T04:32:34.857Z,9.60
2022-10-03T04:35:39.061Z,9.70
2022-10-03T04:38:40.189Z,9.60
2022-10-03T04:41:27.676Z,9.50
2022-10-03T04:44:19.606Z,9.50
2022-10-03T04:46:57.530Z,9.60
2022-10-03T04:49:40.835Z,9.60
2022-10-03T04:52:16.666Z,9.50
2022-10-03T04:54:54.970Z,9.40
2022-10-03T04:57:30.549Z,9.40
2022-10-03T05:00:20.939Z,9.50
2022-10-03T05:03:12.330Z,9.40
2022-10-03T05:05:52.774Z,9.50
2022-10-03T05:08:33.823Z,9.50
2022-10-03T05:11:20.093Z,9.50
2022-10-03T05:14:18.887Z,9.60
2022-10-03T05:17:14.532Z,9.80
2022-10-03T05:20:08.486Z,9.90
2022-10-03T05:22:55.515Z,10.00
2022-10-03T05:25:53.476Z,9.80
2022-10-03T05:28:34.476Z,9.70
2022-10-03T05:31:12.057Z,9.90
2022-10-03T05:33:45.998Z,9.80
2022-10-03T05:36:31.256Z,10.00
2022-10-03T05:39:20.514Z,9.90
2022-10-03T05:42:35.623Z,9.90
2022-10-03T05:45:07.892Z,9.80
2022-10-03T05:48:05.551Z,9.80
2022-10-03T05:50:49.543Z,9.80
2022-10-03T05:53:42.943Z,9.80
2022-10-03T05:56:31.834Z,9.70
2022-10-03T05:59:40.343Z,9.90
2022-10-03T06:02:38.615Z,9.90
2022-10-03T06:05:32.014Z,9.90
2022-10-03T06:08:41.942Z,9.90
2022-10-03T06:11:34.640Z,9.80
2022-10-03T06:14:46.200Z,9.90
2022-10-03T06:17:45.533Z,9.90
2022-10-03T06:20:42.469Z,10.00
2022-10-03T06:23:43.195Z,10.10
2022-10-03T06:26:29.058Z,10.20
2022-10-03T06:29:28.716Z,10.20
2022-10-03T06:32:26.208Z,10.20
2022-10-03T06:35:26.969Z,10.20
2022-10-03T06:38:12.343Z,10.30
2022-10-03T06:40:50.950Z,10.30
2022-10-03T06:43:32.804Z,10.40
2022-10-03T06:46:45.681Z,10.40
2022-10-03T06:49:45.713Z,10.50
2022-10-03T06:52:44.507Z,10.40
2022-10-03T06:55:48.013Z,10.50
2022-10-03T06:58:39.639Z,10.50
2022-10-03T07:01:38.374Z,10.40
2022-10-03T07:04:41.782Z,10.50
2022-10-03T07:07:32.861Z,10.50
2022-10-03T07:10:33.361Z,10.60
2022-10-03T07:13:25.358Z,10.40
2022-10-03T07:16:25.998Z,10.30
2022-10-03T07:19:05.045Z,10.30
2022-10-03T07:22:02.433Z,10.40
2022-10-03T07:24:43.474Z,10.60
2022-10-03T07:27:39.764Z,10.60
2022-10-03T07:30:24.234Z,10.60
2022-10-03T07:33:28.320Z,10.60
2022-10-03T07:37:03.835Z,10.80
2022-10-03T07:40:01.209Z,10.70
2022-10-03T07:42:46.919Z,10.60
2022-10-03T07:45:41.022Z,10.50
2022-10-03T07:48:34.051Z,10.80
2022-10-03T07:51:12.355Z,11.00
2022-10-03T07:53:43.380Z,10.90
2022-10-03T07:56:20.196Z,11.00
2022-10-03T07:59:24.827Z,10.70
2022-10-03T08:02:33.659Z,10.50
2022-10-03T08:05:21.768Z,10.90
2022-10-03T08:08:04.053Z,11.00
2022-10-03T08:11:04.827Z,11.00
2022-10-03T08:13:50.327Z,10.70
2022-10-03T08:16:38.992Z,11.10
2022-10-03T08:19:17.744Z,10.80
2022-10-03T08:22:11.839Z,10.70
2022-10-03T08:25:16.093Z,10.90
2022-10-03T08:28:10.563Z,10.80
2022-10-03T08:31:17.619Z,10.70
2022-10-03T08:34:20.734Z,10.60
2022-10-03T08:37:08.883Z,10.80
2022-10-03T08:39:54.458Z,10.90
2022-10-03T08:43:04.177Z,10.90
2022-10-03T08:45:58.099Z,10.80
2022-10-03T08:48:40.632Z,10.80
2022-10-03T08:51:15.972Z,10.90
2022-10-03T08:54:05.192Z,11.00
2022-10-03T08:56:57.983Z,11.10
2022-10-03T09:00:09.844Z,11.20
2022-10-03T09:02:39.665Z,11.30
2022-10-03T09:05:31.185Z,11.40
2022-10-03T09:08:23.101Z,11.20
2022-10-03T09:11:13.868Z,11.30
2022-10-03T09:14:03.339Z,11.40
2022-10-03T09:17:07.624Z,11.60
2022-10-03T09:20:11.314Z,11.70
2022-10-03T09:23:13.444Z,11.70
2022-10-03T09:25:52.144Z,11.70
2022-10-03T09:28:37.157Z,11.70
2022-10-03T09:31:32.136Z,11.70
2022-10-03T09:34:11.165Z,11.60
2022-10-03T09:37:13.080Z,11.90
2022-10-03T09:40:18.879Z,11.90
2022-10-03T09:43:12.981Z,11.80
2022-10-03T09:45:48.219Z,11.90
2022-10-03T09:48:35.401Z,12.10
2022-10-03T09:51:10.952Z,12.20
2022-10-03T09:53:37.999Z,12.40
2022-10-03T09:56:47.922Z,12.40
2022-10-03T09:59:52.227Z,12.50
2022-10-03T10:02:27.776Z,12.50
2022-10-03T10:05:32.104Z,12.50
2022-10-03T10:08:31.055Z,12.60
2022-10-03T10:11:14.146Z,12.90
2022-10-03T10:14:26.027Z,12.90
2022-10-03T10:17:23.605Z,12.90
2022-10-03T10:20:07.231Z,13.00
2022-10-03T10:23:03.331Z,13.10
2022-10-03T10:25:57.620Z,13.20
2022-10-03T10:28:43.363Z,13.20
2022-10-03T10:31:25.131Z,13.10
2022-10-03T10:34:10.053Z,13.20
2022-10-03T10:37:04.611Z,13.20
2022-10-03T10:40:21.655Z,13.40
2022-10-03T10:43:21.329Z,13.50
2022-10-03T10:46:14.405Z,13.80
2022-10-03T10:49:15.080Z,13.90
2022-10-03T10:52:03.053Z,13.90
2022-10-03T10:55:16.939Z,13.80
2022-10-03T10:58:14.671Z,13.90
2022-10-03T11:01:05.679Z,14.20
2022-10-03T11:03:54.280Z,14.20
2022-10-03T11:06:42.014Z,14.30
2022-10-03T11:09:37.368Z,14.50
2022-10-03T11:12:22.630Z,14.60
2022-10-03T11:15:10.700Z,14.70
2022-10-03T11:18:05.694Z,14.50
2022-10-03T11:20:59.534Z,14.40
2022-10-03T11:24:00.138Z,14.50
2022-10-03T11:26:55.073Z,14.70
2022-10-03T11:29:52.963Z,14.80
2022-10-03T11:32:50.544Z,14.90
2022-10-03T11:36:01.634Z,15.00
2022-10-03T11:38:56.857Z,14.70
2022-10-03T11:41:30.228Z,14.70
2022-10-03T11:44:19.305Z,14.60
2022-10-03T11:47:10.422Z,14.70
2022-10-03T11:49:47.692Z,14.80
2022-10-03T11:52:27.828Z,15.10
2022-10-03T11:55:35.851Z,15.10
2022-10-03T11:58:27.161Z,14.90
2022-10-03T12:01:31.703Z,14.70
2022-10-03T12:04:11.244Z,14.70
2022-10-03T12:07:15.975Z,14.90
2022-10-03T12:10:04.412Z,15.10
2022-10-03T12:12:36.318Z,15.20
2022-10-03T12:15:27.937Z,15.10
2022-10-03T12:18:21.225Z,15.00
2022-10-03T12:21:23.134Z,15.10
2022-10-03T12:24:14.581Z,15.20
2022-10-03T12:26:43.843Z,15.30
2022-10-03T12:29:13.350Z,15.30
2022-10-03T12:31:48.271Z,15.50
2022-10-03T12:34:35.766Z,15.30
2022-10-03T12:37:28.501Z,15.40
2022-10-03T12:40:10.970Z,15.80
2022-10-03T12:43:04.182Z,15.80
2022-10-03T12:45:45.967Z,16.10
2022-10-03T12:48:36.806Z,15.70
2022-10-03T12:51:37.342Z,15.90
2022-10-03T12:54:16.298Z,15.80
2022-10-03T12:57:04.803Z,16.10
2022-10-03T13:00:15.658Z,16.10
2022-10-03T13:03:25.995Z,15.80
2022-10-03T13:07:01.868Z,16.00
2022-10-03T13:09:37.301Z,16.30
2022-10-03T13:12:16.696Z,16.30
2022-10-03T13:15:20.832Z,16.40
2022-10-03T13:17:58.087Z,16.20
2022-10-03T13:20:37.061Z,16.20
2022-10-03T13:23:32.577Z,16.50
2022-10-03T13:26:19.910Z,16.40
2022-10-03T13:28:49.318Z,16.50
2022-10-03T13:31:22.454Z,16.30
2022-10-03T13:33:53.691Z,16.30
2022-10-03T13:36:30.491Z,15.90
2022-10-03T13:39:20.134Z,16.10
2022-10-03T13:42:03.900Z,16.30
2022-10-03T13:44:50.250Z,16.10
2022-10-03T13:47:35.014Z,16.50
2022-10-03T13:50:32.373Z,16.60
2022-10-03T13:53:17.405Z,16.80
2022-10-03T13:55:53.885Z,16.60
2022-10-03T13:58:23.797Z,16.70
2022-10-03T14:01:28.178Z,16.70
2022-10-03T14:04:19.511Z,16.80
2022-10-03T14:07:07.997Z,16.70
2022-10-03T14:10:17.883Z,16.80
2022-10-03T14:13:00.929Z,17.00
2022-10-03T14:15:32.482Z,16.90
2022-10-03T14:18:21.142Z,16.80
2022-10-03T14:21:12.561Z,16.80
2022-10-03T14:24:16.906Z,17.00
2022-10-03T14:26:43.521Z,17.10
2022-10-03T14:29:22.454Z,17.00
2022-10-03T14:31:57.170Z,17.00
2022-10-03T14:34:58.649Z,17.20
2022-10-03T14:37:58.644Z,17.20
2022-10-03T14:40:40.542Z,16.90
2022-10-03T14:43:35.078Z,17.00
2022-10-03T14:46:05.547Z,17.00
2022-10-03T14:48:38.881Z,16.90
2022-10-03T14:51:25.395Z,16.80
2022-10-03T14:54:07.084Z,16.80
2022-10-03T14:56:44.932Z,16.90
2022-10-03T14:59:33.937Z,16.90
2022-10-03T15:02:05.420Z,16.80
2022-10-03T15:04:42.333Z,16.70
2022-10-03T15:07:09.346Z,16.80
2022-10-03T15:09:40.064Z,16.60
2022-10-03T15:12:10.044Z,16.70
2022-10-03T15:14:42.217Z,17.00
2022-10-03T15:17:28.517Z,16.70
2022-10-03T15:19:57.929Z,16.50
2022-10-03T15:22:47.046Z,16.40
2022-10-03T15:25:25.995Z,16.50
2022-10-03T15:27:55.469Z,16.40
2022-10-03T15:30:31.996Z,16.30
2022-10-03T15:33:29.308Z,16.30
2022-10-03T15:36:11.045Z,16.30
2022-10-03T15:38:40.315Z,16.60
2022-10-03T15:41:10.022Z,16.60
2022-10-03T15:43:53.756Z,16.20
2022-10-03T15:46:48.027Z,16.20
2022-10-03T15:49:27.737Z,16.20
2022-10-03T15:51:55.770Z,16.20
2022-10-03T15:54:26.447Z,16.30
2022-10-03T15:56:59.926Z,16.20
2022-10-03T15:59:30.471Z,16.30
2022-10-03T16:01:59.164Z,16.20
2022-10-03T16:04:33.830Z,16.00
2022-10-03T16:07:15.191Z,15.90
2022-10-03T16:09:53.630Z,15.90
2022-10-03T16:12:46.218Z,15.70
2022-10-03T16:15:26.610Z,15.70
2022-10-03T16:18:21.872Z,15.60
2022-10-03T16:20:58.762Z,15.50
2022-10-03T16:23:36.642Z,15.40
2022-10-03T16:26:11.886Z,15.30
2022-10-03T16:28:46.273Z,15.20
2022-10-03T16:31:21.059Z,15.10
2022-10-03T16:33:58.074Z,15.00
2022-10-03T16:36:25.747Z,14.90
2022-10-03T16:38:59.758Z,14.90
2022-10-03T16:41:35.006Z,14.80
2022-10-03T16:44:11.152Z,14.70
2022-10-03T16:46:40.130Z,14.60
2022-10-03T16:49:45.472Z,14.60
2022-10-03T16:52:18.793Z,14.70
2022-10-03T16:54:47.262Z,14.60
2022-10-03T16:57:31.900Z,14.40
2022-10-03T17:00:06.024Z,14.30
2022-10-03T17:02:33.199Z,14.30
2022-10-03T17:05:06.506Z,14.20
2022-10-03T17:07:46.799Z,14.10
2022-10-03T17:10:39.907Z,14.00
2022-10-03T17:13:15.742Z,13.90
2022-10-03T17:15:57.352Z,13.70
2022-10-03T17:18:27.139Z,13.60
2022-10-03T17:21:26.145Z,13.50
2022-10-03T17:24:05.816Z,13.50
2022-10-03T17:26:40.202Z,13.40
2022-10-03T17:29:27.137Z,13.30
2022-10-03T17:32:20.417Z,13.20
2022-10-03T17:35:02.138Z,13.10
2022-10-03T17:38:10.414Z,13.00
2022-10-03T17:41:08.254Z,13.10
2022-10-03T17:43:40.238Z,13.10
2022-10-03T17:46:27.516Z,12.90
2022-10-03T17:49:12.427Z,12.90
2022-10-03T17:51:43.449Z,12.80
2022-10-03T17:54:17.180Z,12.80
2022-10-03T17:56:51.326Z,12.80
2022-10-03T17:59:31.592Z,12.80
2022-10-03T18:02:13.204Z,12.90
2022-10-03T18:04:44.508Z,12.80
2022-10-03T18:07:22.687Z,12.70
2022-10-03T18:09:52.069Z,12.60
2022-10-03T18:12:40.332Z,12.70
2022-10-03T18:15:39.408Z,12.80
2022-10-03T18:18:56.721Z,12.60
2022-10-03T18:22:02.518Z,12.50
2022-10-03T18:24:53.517Z,12.50
2022-10-03T18:27:42.790Z,12.50
2022-10-03T18:30:18.517Z,12.40
2022-10-03T18:32:46.923Z,12.40
2022-10-03T18:35:16.243Z,12.30
2022-10-03T18:37:45.891Z,12.20
2022-10-03T18:40:24.607Z,12.10
2022-10-03T18:42:51.914Z,12.00
2022-10-03T18:45:24.274Z,12.10
2022-10-03T18:47:56.743Z,12.20
2022-10-03T18:50:27.588Z,12.20
2022-10-03T18:53:00.458Z,12.10
2022-10-03T18:55:41.896Z,12.00
2022-10-03T18:58:21.612Z,12.00
2022-10-03T19:00:56.387Z,12.10
2022-10-03T19:03:34.344Z,12.10
2022-10-03T19:06:21.694Z,12.00
2022-10-03T19:08:49.983Z,11.90
2022-10-03T19:11:22.830Z,11.90
2022-10-03T19:14:13.939Z,11.80
2022-10-03T19:17:16.010Z,11.80
2022-10-03T19:19:59.026Z,11.70
2022-10-03T19:22:31.363Z,11.70
2022-10-03T19:25:02.849Z,11.80
2022-10-03T19:28:01.384Z,11.80
2022-10-03T19:30:31.124Z,11.70
2022-10-03T19:33:09.669Z,11.70
2022-10-03T19:35:40.269Z,11.70
2022-10-03T19:38:18.473Z,11.70
2022-10-03T19:41:07.432Z,11.60
2022-10-03T19:43:45.479Z,11.60
2022-10-03T19:46:15.124Z,11.60
2022-10-03T19:48:52.042Z,11.60
2022-10-03T19:51:25.373Z,11.50
2022-10-03T19:54:00.138Z,11.40
2022-10-03T19:56:31.194Z,11.50
2022-10-03T19:59:13.073Z,11.50
2022-10-03T20:01:45.013Z,11.50
2022-10-03T20:04:12.800Z,11.30
2022-10-03T20:06:47.424Z,11.30
2022-10-03T20:09:22.699Z,11.40
2022-10-03T20:12:00.033Z,11.30
2022-10-03T20:14:33.394Z,11.30
2022-10-03T20:17:05.277Z,11.30
2022-10-03T20:19:54.810Z,11.20
2022-10-03T20:22:27.258Z,11.40
2022-10-03T20:24:54.386Z,11.60
2022-10-03T20:27:45.803Z,11.50
2022-10-03T20:30:24.353Z,11.70
2022-10-03T20:32:52.701Z,11.60
2022-10-03T20:35:36.741Z,11.50
2022-10-03T20:38:25.312Z,11.30
2022-10-03T20:41:05.382Z,11.50
2022-10-03T20:43:46.961Z,11.60
2022-10-03T20:46:24.591Z,11.50
2022-10-03T20:49:03.664Z,11.40
2022-10-03T20:51:52.110Z,11.50
2022-10-03T20:54:22.289Z,11.50
2022-10-03T20:56:58.720Z,11.40
2022-10-03T20:59:47.882Z,11.10
2022-10-03T21:02:48.372Z,10.80
2022-10-03T21:05:40.354Z,10.80
2022-10-03T21:08:15.742Z,10.70
2022-10-03T21:10:51.660Z,10.60
2022-10-03T21:13:28.108Z,10.50
2022-10-03T21:15:59.211Z,10.50
2022-10-03T21:18:41.321Z,10.20
2022-10-03T21:21:16.007Z,10.20
2022-10-03T21:23:52.518Z,10.10
2022-10-03T21:26:30.932Z,10.20
2022-10-03T21:29:24.694Z,10.20
2022-10-03T21:32:16.245Z,10.30
2022-10-03T21:34:54.008Z,10.30
2022-10-03T21:37:29.672Z,10.30
2022-10-03T21:40:14.819Z,10.40
2022-10-03T21:43:09.797Z,10.20
2022-10-03T21:45:44.999Z,10.30
2022-10-03T21:48:26.058Z,10.20
2022-10-03T21:51:00.231Z,10.10
2022-10-03T21:53:55.254Z,10.00
2022-10-03T21:56:34.566Z,10.00
2022-10-03T21:59:20.123Z,10.10
2022-10-03T22:01:59.714Z,10.00
2022-10-03T22:04:34.433Z,9.80
2022-10-03T22:07:18.095Z,9.80
2022-10-03T22:09:50.967Z,9.70
2022-10-03T22:12:18.207Z,9.80
2022-10-03T22:15:00.187Z,9.70
2022-10-03T22:17:38.138Z,9.70
2022-10-03T22:20:12.798Z,9.70
2022-10-03T22:23:18.458Z,9.70
2022-10-03T22:26:04.198Z,9.70
2022-10-03T22:28:37.028Z,9.70
2022-10-03T22:31:26.620Z,9.70
2022-10-03T22:34:22.428Z,9.90
2022-10-03T22:36:49.942Z,9.80
2022-10-03T22:39:19.477Z,10.00
2022-10-03T22:41:50.414Z,9.90
2022-10-03T22:44:19.421Z,9.80
2022-10-03T22:46:50.539Z,9.70
2022-10-03T22:49:22.759Z,9.60
2022-10-03T22:51:53.797Z,9.40
2022-10-03T22:54:21.343Z,9.30
2022-10-03T22:57:00.263Z,9.00
2022-10-03T22:59:35.318Z,9.00
2022-10-03T23:02:06.763Z,9.30
2022-10-03T23:04:57.018Z,9.20
2022-10-03T23:07:45.691Z,9.10
2022-10-03T23:10:34.031Z,9.10
2022-10-03T23:13:09.114Z,9.20
2022-10-03T23:15:39.675Z,9.10
2022-10-03T23:18:30.569Z,9.00
2022-10-03T23:21:09.604Z,9.00
2022-10-03T23:23:42.847Z,9.00
2022-10-03T23:26:43.480Z,9.00
2022-10-03T23:29:13.307Z,9.30
2022-10-03T23:32:03.011Z,9.20
2022-10-03T23:34:36.148Z,9.20
2022-10-03T23:37:11.877Z,9.20
2022-10-03T23:39:40.787Z,9.20
2022-10-03T23:42:37.651Z,9.20
2022-10-03T23:45:07.383Z,9.20
2022-10-03T23:47:41.333Z,9.10
2022-10-03T23:50:09.289Z,8.90
2022-10-03T23:52:50.401Z,8.70
2022-10-03T23:55:25.588Z,8.80
2022-10-03T23:57:52.693Z,8.70
